sensor_id;sensor_type;location;lat;lon;timestamp;P1;durP1;ratioP1;P2;durP2;ratioP2
79365;SDS011;68833;53.160;17.920;2023-04-28T00:01:40;23.50;;;13.00;;
79365;SDS011;68833;53.160;17.920;2023-04-28T00:04:06;25.10;;;13.80;;
79365;SDS011;68833;53.160;17.920;2023-04-28T00:06:32;24.00;;;13.60;;
79365;SDS011;68833;53.160;17.920;2023-04-28T00:08:59;25.40;;;13.40;;
79365;SDS011;68833;53.160;17.920;2023-04-28T00:11:27;25.00;;;14.50;;
79365;SDS011;68833;53.160;17.920;2023-04-28T00:13:53;26.00;;;14.10;;
79365;SDS011;68833;53.160;17.920;2023-04-28T00:16:20;30.30;;;18.00;;
79365;SDS011;68833;53.160;17.920;2023-04-28T00:18:49;33.90;;;19.90;;
79365;SDS011;68833;53.160;17.920;2023-04-28T00:21:16;32.30;;;20.00;;
79365;SDS011;68833;53.160;17.920;2023-04-28T00:23:43;33.60;;;19.80;;
79365;SDS011;68833;53.160;17.920;2023-04-28T00:26:10;31.50;;;18.80;;
79365;SDS011;68833;53.160;17.920;2023-04-28T00:28:38;35.80;;;20.80;;
79365;SDS011;68833;53.160;17.920;2023-04-28T00:31:11;50.70;;;26.60;;
79365;SDS011;68833;53.160;17.920;2023-04-28T00:33:41;50.70;;;27.30;;
79365;SDS011;68833;53.160;17.920;2023-04-28T00:36:17;49.90;;;29.90;;
79365;SDS011;68833;53.160;17.920;2023-04-28T00:38:44;45.90;;;27.50;;
79365;SDS011;68833;53.160;17.920;2023-04-28T00:41:10;48.20;;;28.60;;
79365;SDS011;68833;53.160;17.920;2023-04-28T00:43:47;46.60;;;33.10;;
79365;SDS011;68833;53.160;17.920;2023-04-28T00:46:21;49.90;;;37.20;;
79365;SDS011;68833;53.160;17.920;2023-04-28T00:48:51;57.90;;;38.90;;
79365;SDS011;68833;53.160;17.920;2023-04-28T00:51:17;50.80;;;37.30;;
79365;SDS011;68833;53.160;17.920;2023-04-28T00:53:44;52.20;;;36.30;;
79365;SDS011;68833;53.160;17.920;2023-04-28T00:56:11;53.20;;;35.10;;
79365;SDS011;68833;53.160;17.920;2023-04-28T00:58:38;39.60;;;26.80;;
79365;SDS011;68833;53.160;17.920;2023-04-28T01:01:04;28.30;;;20.00;;
79365;SDS011;68833;53.160;17.920;2023-04-28T01:03:47;29.20;;;20.80;;
79365;SDS011;68833;53.160;17.920;2023-04-28T01:06:14;37.00;;;24.30;;
79365;SDS011;68833;53.160;17.920;2023-04-28T01:08:42;34.70;;;24.80;;
79365;SDS011;68833;53.160;17.920;2023-04-28T01:11:14;47.90;;;28.60;;
79365;SDS011;68833;53.160;17.920;2023-04-28T01:14:06;39.30;;;25.50;;
79365;SDS011;68833;53.160;17.920;2023-04-28T01:16:35;41.80;;;26.70;;
79365;SDS011;68833;53.160;17.920;2023-04-28T01:19:05;42.10;;;28.90;;
79365;SDS011;68833;53.160;17.920;2023-04-28T01:21:34;44.10;;;31.30;;
79365;SDS011;68833;53.160;17.920;2023-04-28T01:24:20;43.90;;;32.60;;
79365;SDS011;68833;53.160;17.920;2023-04-28T01:26:46;43.50;;;33.60;;
79365;SDS011;68833;53.160;17.920;2023-04-28T01:29:15;52.10;;;36.20;;
79365;SDS011;68833;53.160;17.920;2023-04-28T01:31:42;51.10;;;38.40;;
79365;SDS011;68833;53.160;17.920;2023-04-28T01:34:09;47.70;;;37.80;;
79365;SDS011;68833;53.160;17.920;2023-04-28T01:36:36;54.00;;;38.40;;
79365;SDS011;68833;53.160;17.920;2023-04-28T01:39:02;48.00;;;39.20;;
79365;SDS011;68833;53.160;17.920;2023-04-28T01:41:29;52.90;;;41.30;;
79365;SDS011;68833;53.160;17.920;2023-04-28T01:43:56;51.30;;;38.60;;
79365;SDS011;68833;53.160;17.920;2023-04-28T01:46:24;52.10;;;40.60;;
79365;SDS011;68833;53.160;17.920;2023-04-28T01:48:51;53.90;;;40.80;;
79365;SDS011;68833;53.160;17.920;2023-04-28T01:51:18;48.90;;;39.60;;
79365;SDS011;68833;53.160;17.920;2023-04-28T01:53:46;48.00;;;37.00;;
79365;SDS011;68833;53.160;17.920;2023-04-28T01:56:13;49.60;;;37.40;;
79365;SDS011;68833;53.160;17.920;2023-04-28T01:58:41;46.10;;;35.00;;
79365;SDS011;68833;53.160;17.920;2023-04-28T02:01:08;41.90;;;34.30;;
79365;SDS011;68833;53.160;17.920;2023-04-28T02:03:34;48.00;;;34.50;;
79365;SDS011;68833;53.160;17.920;2023-04-28T02:06:03;42.00;;;30.40;;
79365;SDS011;68833;53.160;17.920;2023-04-28T02:08:30;36.70;;;29.90;;
79365;SDS011;68833;53.160;17.920;2023-04-28T02:10:57;42.90;;;31.40;;
79365;SDS011;68833;53.160;17.920;2023-04-28T02:13:23;43.90;;;35.60;;
79365;SDS011;68833;53.160;17.920;2023-04-28T02:15:50;46.40;;;38.60;;
79365;SDS011;68833;53.160;17.920;2023-04-28T02:18:16;50.70;;;40.80;;
79365;SDS011;68833;53.160;17.920;2023-04-28T02:20:42;54.30;;;40.90;;
79365;SDS011;68833;53.160;17.920;2023-04-28T02:23:09;51.20;;;41.30;;
79365;SDS011;68833;53.160;17.920;2023-04-28T02:25:37;54.30;;;42.20;;
79365;SDS011;68833;53.160;17.920;2023-04-28T02:28:04;48.50;;;39.90;;
79365;SDS011;68833;53.160;17.920;2023-04-28T02:30:36;54.10;;;44.90;;
79365;SDS011;68833;53.160;17.920;2023-04-28T02:33:03;57.30;;;43.20;;
79365;SDS011;68833;53.160;17.920;2023-04-28T02:35:30;47.20;;;36.00;;
79365;SDS011;68833;53.160;17.920;2023-04-28T02:37:57;40.90;;;34.10;;
79365;SDS011;68833;53.160;17.920;2023-04-28T02:40:23;32.20;;;25.10;;
79365;SDS011;68833;53.160;17.920;2023-04-28T02:42:50;29.50;;;21.70;;
79365;SDS011;68833;53.160;17.920;2023-04-28T02:45:18;30.90;;;23.60;;
79365;SDS011;68833;53.160;17.920;2023-04-28T02:47:45;31.30;;;22.40;;
79365;SDS011;68833;53.160;17.920;2023-04-28T02:50:13;28.20;;;18.50;;
79365;SDS011;68833;53.160;17.920;2023-04-28T02:52:40;25.30;;;15.60;;
79365;SDS011;68833;53.160;17.920;2023-04-28T02:55:07;22.50;;;14.80;;
79365;SDS011;68833;53.160;17.920;2023-04-28T02:57:34;20.90;;;13.30;;
79365;SDS011;68833;53.160;17.920;2023-04-28T03:00:02;18.00;;;13.00;;
79365;SDS011;68833;53.160;17.920;2023-04-28T03:02:35;21.20;;;12.90;;
79365;SDS011;68833;53.160;17.920;2023-04-28T03:05:01;19.00;;;13.90;;
79365;SDS011;68833;53.160;17.920;2023-04-28T03:07:28;20.70;;;13.80;;
79365;SDS011;68833;53.160;17.920;2023-04-28T03:09:54;30.40;;;21.60;;
79365;SDS011;68833;53.160;17.920;2023-04-28T03:12:22;34.10;;;24.60;;
79365;SDS011;68833;53.160;17.920;2023-04-28T03:14:49;33.10;;;26.60;;
79365;SDS011;68833;53.160;17.920;2023-04-28T03:17:16;38.20;;;25.20;;
79365;SDS011;68833;53.160;17.920;2023-04-28T03:19:43;32.20;;;24.20;;
79365;SDS011;68833;53.160;17.920;2023-04-28T03:22:09;36.70;;;25.60;;
79365;SDS011;68833;53.160;17.920;2023-04-28T03:24:36;31.20;;;22.50;;
79365;SDS011;68833;53.160;17.920;2023-04-28T03:27:03;29.20;;;20.00;;
79365;SDS011;68833;53.160;17.920;2023-04-28T03:29:30;29.00;;;19.80;;
79365;SDS011;68833;53.160;17.920;2023-04-28T03:31:58;33.70;;;18.90;;
79365;SDS011;68833;53.160;17.920;2023-04-28T03:34:25;42.10;;;26.40;;
79365;SDS011;68833;53.160;17.920;2023-04-28T03:36:52;36.30;;;27.00;;
79365;SDS011;68833;53.160;17.920;2023-04-28T03:39:24;43.10;;;29.30;;
79365;SDS011;68833;53.160;17.920;2023-04-28T03:41:51;42.30;;;28.80;;
79365;SDS011;68833;53.160;17.920;2023-04-28T03:44:37;43.20;;;28.60;;
79365;SDS011;68833;53.160;17.920;2023-04-28T03:47:05;44.20;;;30.00;;
79365;SDS011;68833;53.160;17.920;2023-04-28T03:49:33;39.80;;;25.20;;
79365;SDS011;68833;53.160;17.920;2023-04-28T03:52:00;31.50;;;21.80;;
79365;SDS011;68833;53.160;17.920;2023-04-28T03:54:28;34.40;;;21.00;;
79365;SDS011;68833;53.160;17.920;2023-04-28T03:56:54;31.60;;;19.70;;
79365;SDS011;68833;53.160;17.920;2023-04-28T03:59:21;29.50;;;20.80;;
79365;SDS011;68833;53.160;17.920;2023-04-28T04:01:48;31.00;;;21.40;;
79365;SDS011;68833;53.160;17.920;2023-04-28T04:04:15;35.50;;;20.70;;
79365;SDS011;68833;53.160;17.920;2023-04-28T04:06:41;33.60;;;19.90;;
79365;SDS011;68833;53.160;17.920;2023-04-28T04:09:08;30.20;;;20.90;;
79365;SDS011;68833;53.160;17.920;2023-04-28T04:11:35;29.50;;;19.10;;
79365;SDS011;68833;53.160;17.920;2023-04-28T04:14:02;29.90;;;18.60;;
79365;SDS011;68833;53.160;17.920;2023-04-28T04:16:28;31.90;;;20.00;;
79365;SDS011;68833;53.160;17.920;2023-04-28T04:18:55;28.70;;;18.50;;
79365;SDS011;68833;53.160;17.920;2023-04-28T04:21:27;27.80;;;17.90;;
79365;SDS011;68833;53.160;17.920;2023-04-28T04:23:58;26.40;;;17.30;;
79365;SDS011;68833;53.160;17.920;2023-04-28T04:26:25;31.30;;;21.20;;
79365;SDS011;68833;53.160;17.920;2023-04-28T04:28:53;29.80;;;19.60;;
79365;SDS011;68833;53.160;17.920;2023-04-28T04:31:20;28.70;;;19.70;;
79365;SDS011;68833;53.160;17.920;2023-04-28T04:33:47;30.30;;;20.70;;
79365;SDS011;68833;53.160;17.920;2023-04-28T04:36:14;35.20;;;23.30;;
79365;SDS011;68833;53.160;17.920;2023-04-28T04:38:42;47.60;;;32.90;;
79365;SDS011;68833;53.160;17.920;2023-04-28T04:41:18;57.60;;;44.80;;
79365;SDS011;68833;53.160;17.920;2023-04-28T04:43:48;42.00;;;30.90;;
79365;SDS011;68833;53.160;17.920;2023-04-28T04:46:14;39.70;;;26.10;;
79365;SDS011;68833;53.160;17.920;2023-04-28T04:48:41;31.50;;;20.20;;
79365;SDS011;68833;53.160;17.920;2023-04-28T04:51:09;32.30;;;19.80;;
79365;SDS011;68833;53.160;17.920;2023-04-28T04:53:42;28.80;;;18.70;;
79365;SDS011;68833;53.160;17.920;2023-04-28T04:56:09;29.70;;;19.30;;
79365;SDS011;68833;53.160;17.920;2023-04-28T04:58:37;30.10;;;18.90;;
79365;SDS011;68833;53.160;17.920;2023-04-28T05:01:24;33.00;;;19.00;;
79365;SDS011;68833;53.160;17.920;2023-04-28T05:03:51;28.00;;;18.20;;
79365;SDS011;68833;53.160;17.920;2023-04-28T05:06:18;30.50;;;18.10;;
79365;SDS011;68833;53.160;17.920;2023-04-28T05:08:47;29.20;;;17.40;;
79365;SDS011;68833;53.160;17.920;2023-04-28T05:11:14;30.60;;;19.30;;
79365;SDS011;68833;53.160;17.920;2023-04-28T05:13:41;28.10;;;17.30;;
79365;SDS011;68833;53.160;17.920;2023-04-28T05:16:07;29.00;;;17.60;;
79365;SDS011;68833;53.160;17.920;2023-04-28T05:18:43;33.90;;;20.90;;
79365;SDS011;68833;53.160;17.920;2023-04-28T05:21:10;50.80;;;28.90;;
79365;SDS011;68833;53.160;17.920;2023-04-28T05:23:36;38.60;;;21.80;;
79365;SDS011;68833;53.160;17.920;2023-04-28T05:26:03;31.10;;;19.90;;
79365;SDS011;68833;53.160;17.920;2023-04-28T05:28:30;32.40;;;21.50;;
79365;SDS011;68833;53.160;17.920;2023-04-28T05:30:57;35.40;;;23.10;;
79365;SDS011;68833;53.160;17.920;2023-04-28T05:33:23;26.50;;;19.70;;
79365;SDS011;68833;53.160;17.920;2023-04-28T05:35:50;27.40;;;17.00;;
79365;SDS011;68833;53.160;17.920;2023-04-28T05:38:16;27.10;;;17.10;;
79365;SDS011;68833;53.160;17.920;2023-04-28T05:40:43;27.20;;;16.20;;
79365;SDS011;68833;53.160;17.920;2023-04-28T05:43:10;30.80;;;19.20;;
79365;SDS011;68833;53.160;17.920;2023-04-28T05:45:37;32.80;;;19.60;;
79365;SDS011;68833;53.160;17.920;2023-04-28T05:48:03;36.10;;;24.00;;
79365;SDS011;68833;53.160;17.920;2023-04-28T05:50:33;37.70;;;21.80;;
79365;SDS011;68833;53.160;17.920;2023-04-28T05:52:59;42.70;;;25.80;;
79365;SDS011;68833;53.160;17.920;2023-04-28T05:55:26;43.90;;;24.10;;
79365;SDS011;68833;53.160;17.920;2023-04-28T05:57:53;35.20;;;23.70;;
79365;SDS011;68833;53.160;17.920;2023-04-28T06:00:19;36.70;;;23.70;;
79365;SDS011;68833;53.160;17.920;2023-04-28T06:02:47;35.50;;;19.20;;
79365;SDS011;68833;53.160;17.920;2023-04-28T06:05:13;36.60;;;22.20;;
79365;SDS011;68833;53.160;17.920;2023-04-28T06:07:40;38.20;;;21.30;;
79365;SDS011;68833;53.160;17.920;2023-04-28T06:10:07;30.50;;;18.60;;
79365;SDS011;68833;53.160;17.920;2023-04-28T06:12:35;31.50;;;16.70;;
79365;SDS011;68833;53.160;17.920;2023-04-28T06:15:02;21.90;;;13.20;;
79365;SDS011;68833;53.160;17.920;2023-04-28T06:17:29;17.60;;;10.60;;
79365;SDS011;68833;53.160;17.920;2023-04-28T06:19:58;19.30;;;11.00;;
79365;SDS011;68833;53.160;17.920;2023-04-28T06:22:24;15.60;;;8.70;;
79365;SDS011;68833;53.160;17.920;2023-04-28T06:24:51;16.70;;;10.50;;
79365;SDS011;68833;53.160;17.920;2023-04-28T06:27:22;15.60;;;8.20;;
79365;SDS011;68833;53.160;17.920;2023-04-28T06:29:48;16.60;;;9.80;;
79365;SDS011;68833;53.160;17.920;2023-04-28T06:32:15;17.70;;;10.00;;
79365;SDS011;68833;53.160;17.920;2023-04-28T06:34:41;19.00;;;9.80;;
79365;SDS011;68833;53.160;17.920;2023-04-28T06:37:07;25.80;;;11.50;;
79365;SDS011;68833;53.160;17.920;2023-04-28T06:39:33;20.60;;;10.40;;
79365;SDS011;68833;53.160;17.920;2023-04-28T06:42:00;16.80;;;9.80;;
79365;SDS011;68833;53.160;17.920;2023-04-28T06:44:28;14.70;;;9.20;;
79365;SDS011;68833;53.160;17.920;2023-04-28T06:46:55;15.50;;;9.00;;
79365;SDS011;68833;53.160;17.920;2023-04-28T06:49:21;15.70;;;8.40;;
79365;SDS011;68833;53.160;17.920;2023-04-28T06:51:47;15.50;;;9.30;;
79365;SDS011;68833;53.160;17.920;2023-04-28T06:54:14;12.60;;;6.90;;
79365;SDS011;68833;53.160;17.920;2023-04-28T06:56:43;14.30;;;7.60;;
79365;SDS011;68833;53.160;17.920;2023-04-28T06:59:09;10.80;;;6.10;;
79365;SDS011;68833;53.160;17.920;2023-04-28T07:01:36;11.50;;;7.00;;
79365;SDS011;68833;53.160;17.920;2023-04-28T07:04:02;8.40;;;5.20;;
79365;SDS011;68833;53.160;17.920;2023-04-28T07:06:28;11.10;;;5.80;;
79365;SDS011;68833;53.160;17.920;2023-04-28T07:08:56;11.70;;;6.60;;
79365;SDS011;68833;53.160;17.920;2023-04-28T07:11:22;9.60;;;5.30;;
79365;SDS011;68833;53.160;17.920;2023-04-28T07:13:49;9.00;;;5.20;;
79365;SDS011;68833;53.160;17.920;2023-04-28T07:16:16;8.80;;;5.10;;
79365;SDS011;68833;53.160;17.920;2023-04-28T07:18:43;5.90;;;3.40;;
79365;SDS011;68833;53.160;17.920;2023-04-28T07:21:10;7.80;;;4.30;;
79365;SDS011;68833;53.160;17.920;2023-04-28T07:23:37;5.90;;;2.30;;
79365;SDS011;68833;53.160;17.920;2023-04-28T07:26:05;4.30;;;2.30;;
79365;SDS011;68833;53.160;17.920;2023-04-28T07:28:31;6.30;;;2.70;;
79365;SDS011;68833;53.160;17.920;2023-04-28T07:30:58;4.90;;;2.70;;
79365;SDS011;68833;53.160;17.920;2023-04-28T07:33:26;6.70;;;2.30;;
79365;SDS011;68833;53.160;17.920;2023-04-28T07:35:53;3.40;;;1.90;;
79365;SDS011;68833;53.160;17.920;2023-04-28T07:38:19;5.00;;;1.90;;
79365;SDS011;68833;53.160;17.920;2023-04-28T07:40:45;5.70;;;2.50;;
79365;SDS011;68833;53.160;17.920;2023-04-28T07:43:12;2.70;;;2.20;;
79365;SDS011;68833;53.160;17.920;2023-04-28T07:45:39;4.70;;;1.90;;
79365;SDS011;68833;53.160;17.920;2023-04-28T07:48:05;4.40;;;2.20;;
79365;SDS011;68833;53.160;17.920;2023-04-28T07:50:32;4.90;;;2.00;;
79365;SDS011;68833;53.160;17.920;2023-04-28T07:52:59;5.20;;;1.90;;
79365;SDS011;68833;53.160;17.920;2023-04-28T07:55:26;4.20;;;1.90;;
79365;SDS011;68833;53.160;17.920;2023-04-28T07:57:52;3.30;;;1.90;;
79365;SDS011;68833;53.160;17.920;2023-04-28T08:00:20;3.60;;;1.90;;
79365;SDS011;68833;53.160;17.920;2023-04-28T08:02:46;4.40;;;1.60;;
79365;SDS011;68833;53.160;17.920;2023-04-28T08:05:13;3.50;;;1.40;;
79365;SDS011;68833;53.160;17.920;2023-04-28T08:07:39;4.40;;;2.60;;
79365;SDS011;68833;53.160;17.920;2023-04-28T08:10:05;3.80;;;1.60;;
79365;SDS011;68833;53.160;17.920;2023-04-28T08:12:32;5.00;;;1.70;;
79365;SDS011;68833;53.160;17.920;2023-04-28T08:14:58;5.50;;;1.70;;
79365;SDS011;68833;53.160;17.920;2023-04-28T08:17:24;3.50;;;1.20;;
79365;SDS011;68833;53.160;17.920;2023-04-28T08:19:50;2.20;;;1.50;;
79365;SDS011;68833;53.160;17.920;2023-04-28T08:22:17;2.30;;;1.50;;
79365;SDS011;68833;53.160;17.920;2023-04-28T08:24:43;1.90;;;1.00;;
79365;SDS011;68833;53.160;17.920;2023-04-28T08:27:09;1.90;;;1.00;;
79365;SDS011;68833;53.160;17.920;2023-04-28T08:29:36;3.00;;;1.20;;
79365;SDS011;68833;53.160;17.920;2023-04-28T08:32:02;2.00;;;1.30;;
79365;SDS011;68833;53.160;17.920;2023-04-28T08:34:31;3.20;;;1.80;;
79365;SDS011;68833;53.160;17.920;2023-04-28T08:36:58;2.80;;;1.80;;
79365;SDS011;68833;53.160;17.920;2023-04-28T08:39:25;3.00;;;1.80;;
79365;SDS011;68833;53.160;17.920;2023-04-28T08:41:52;2.40;;;1.60;;
79365;SDS011;68833;53.160;17.920;2023-04-28T08:44:18;2.90;;;1.40;;
79365;SDS011;68833;53.160;17.920;2023-04-28T08:46:45;8.60;;;3.50;;
79365;SDS011;68833;53.160;17.920;2023-04-28T08:51:45;3.20;;;1.90;;
79365;SDS011;68833;53.160;17.920;2023-04-28T08:54:15;2.10;;;1.40;;
79365;SDS011;68833;53.160;17.920;2023-04-28T08:56:43;4.20;;;1.90;;
79365;SDS011;68833;53.160;17.920;2023-04-28T08:59:10;3.00;;;1.90;;
79365;SDS011;68833;53.160;17.920;2023-04-28T09:01:40;3.20;;;1.30;;
79365;SDS011;68833;53.160;17.920;2023-04-28T09:04:07;4.30;;;1.50;;
79365;SDS011;68833;53.160;17.920;2023-04-28T09:06:33;4.80;;;2.80;;
79365;SDS011;68833;53.160;17.920;2023-04-28T09:11:50;3.90;;;2.40;;
79365;SDS011;68833;53.160;17.920;2023-04-28T09:14:18;3.30;;;1.50;;
79365;SDS011;68833;53.160;17.920;2023-04-28T09:16:44;2.90;;;1.50;;
79365;SDS011;68833;53.160;17.920;2023-04-28T09:19:10;4.80;;;1.90;;
79365;SDS011;68833;53.160;17.920;2023-04-28T09:21:55;3.60;;;1.60;;
79365;SDS011;68833;53.160;17.920;2023-04-28T09:24:29;2.30;;;1.40;;
79365;SDS011;68833;53.160;17.920;2023-04-28T09:27:07;4.20;;;1.90;;
79365;SDS011;68833;53.160;17.920;2023-04-28T09:29:36;1.60;;;1.20;;
79365;SDS011;68833;53.160;17.920;2023-04-28T09:32:16;1.60;;;1.10;;
79365;SDS011;68833;53.160;17.920;2023-04-28T09:34:48;2.10;;;1.50;;
79365;SDS011;68833;53.160;17.920;2023-04-28T09:37:16;4.30;;;1.70;;
79365;SDS011;68833;53.160;17.920;2023-04-28T09:39:48;5.50;;;1.50;;
79365;SDS011;68833;53.160;17.920;2023-04-28T09:47:31;3.50;;;1.70;;
79365;SDS011;68833;53.160;17.920;2023-04-28T09:50:01;2.40;;;1.60;;
79365;SDS011;68833;53.160;17.920;2023-04-28T09:52:29;3.50;;;1.60;;
79365;SDS011;68833;53.160;17.920;2023-04-28T09:54:55;3.00;;;1.40;;
79365;SDS011;68833;53.160;17.920;2023-04-28T09:57:22;4.00;;;2.30;;
79365;SDS011;68833;53.160;17.920;2023-04-28T09:59:50;2.80;;;1.50;;
79365;SDS011;68833;53.160;17.920;2023-04-28T10:03:55;3.30;;;1.50;;
79365;SDS011;68833;53.160;17.920;2023-04-28T10:06:22;1.70;;;1.20;;
79365;SDS011;68833;53.160;17.920;2023-04-28T10:08:50;2.80;;;1.40;;
79365;SDS011;68833;53.160;17.920;2023-04-28T10:11:16;2.30;;;1.40;;
79365;SDS011;68833;53.160;17.920;2023-04-28T10:13:43;4.40;;;1.30;;
79365;SDS011;68833;53.160;17.920;2023-04-28T10:16:10;5.30;;;1.60;;
79365;SDS011;68833;53.160;17.920;2023-04-28T10:18:38;3.20;;;2.20;;
79365;SDS011;68833;53.160;17.920;2023-04-28T10:21:05;4.40;;;1.60;;
79365;SDS011;68833;53.160;17.920;2023-04-28T10:26:12;3.40;;;1.60;;
79365;SDS011;68833;53.160;17.920;2023-04-28T10:28:46;4.40;;;1.90;;
79365;SDS011;68833;53.160;17.920;2023-04-28T10:31:15;4.30;;;1.70;;
79365;SDS011;68833;53.160;17.920;2023-04-28T10:33:46;4.60;;;1.40;;
79365;SDS011;68833;53.160;17.920;2023-04-28T10:39:12;2.70;;;1.60;;
79365;SDS011;68833;53.160;17.920;2023-04-28T10:41:39;3.30;;;1.50;;
79365;SDS011;68833;53.160;17.920;2023-04-28T10:47:04;5.60;;;1.70;;
79365;SDS011;68833;53.160;17.920;2023-04-28T11:00:41;3.60;;;2.00;;
79365;SDS011;68833;53.160;17.920;2023-04-28T11:03:08;5.30;;;2.50;;
79365;SDS011;68833;53.160;17.920;2023-04-28T11:05:34;2.30;;;1.50;;
79365;SDS011;68833;53.160;17.920;2023-04-28T11:13:35;3.70;;;1.90;;
79365;SDS011;68833;53.160;17.920;2023-04-28T11:16:04;4.10;;;1.80;;
79365;SDS011;68833;53.160;17.920;2023-04-28T11:18:47;3.50;;;2.00;;
79365;SDS011;68833;53.160;17.920;2023-04-28T11:21:15;4.10;;;1.60;;
79365;SDS011;68833;53.160;17.920;2023-04-28T11:23:42;5.20;;;1.60;;
79365;SDS011;68833;53.160;17.920;2023-04-28T11:26:09;3.20;;;1.80;;
79365;SDS011;68833;53.160;17.920;2023-04-28T11:28:41;2.80;;;1.70;;
79365;SDS011;68833;53.160;17.920;2023-04-28T11:31:12;3.60;;;1.90;;
79365;SDS011;68833;53.160;17.920;2023-04-28T11:33:45;3.60;;;1.40;;
79365;SDS011;68833;53.160;17.920;2023-04-28T11:36:22;4.70;;;1.70;;
79365;SDS011;68833;53.160;17.920;2023-04-28T11:38:48;1.90;;;1.40;;
79365;SDS011;68833;53.160;17.920;2023-04-28T11:41:14;3.40;;;1.50;;
79365;SDS011;68833;53.160;17.920;2023-04-28T11:43:41;4.60;;;1.80;;
79365;SDS011;68833;53.160;17.920;2023-04-28T11:46:07;4.30;;;2.10;;
79365;SDS011;68833;53.160;17.920;2023-04-28T11:48:33;2.40;;;1.50;;
79365;SDS011;68833;53.160;17.920;2023-04-28T11:50:59;2.90;;;1.70;;
79365;SDS011;68833;53.160;17.920;2023-04-28T11:56:22;3.70;;;1.90;;
79365;SDS011;68833;53.160;17.920;2023-04-28T11:59:01;5.30;;;2.40;;
79365;SDS011;68833;53.160;17.920;2023-04-28T12:01:30;4.50;;;2.20;;
79365;SDS011;68833;53.160;17.920;2023-04-28T12:03:57;4.00;;;2.10;;
79365;SDS011;68833;53.160;17.920;2023-04-28T12:06:24;3.00;;;1.90;;
79365;SDS011;68833;53.160;17.920;2023-04-28T12:08:50;4.90;;;1.80;;
79365;SDS011;68833;53.160;17.920;2023-04-28T12:11:17;4.10;;;1.90;;
79365;SDS011;68833;53.160;17.920;2023-04-28T12:14:04;4.80;;;2.10;;
79365;SDS011;68833;53.160;17.920;2023-04-28T12:16:36;2.80;;;1.60;;
79365;SDS011;68833;53.160;17.920;2023-04-28T12:19:04;7.90;;;3.20;;
79365;SDS011;68833;53.160;17.920;2023-04-28T12:21:34;3.50;;;2.10;;
79365;SDS011;68833;53.160;17.920;2023-04-28T12:24:11;4.20;;;2.40;;
79365;SDS011;68833;53.160;17.920;2023-04-28T12:26:47;3.60;;;2.60;;
79365;SDS011;68833;53.160;17.920;2023-04-28T12:32:06;3.70;;;1.90;;
79365;SDS011;68833;53.160;17.920;2023-04-28T12:34:34;3.70;;;1.70;;
79365;SDS011;68833;53.160;17.920;2023-04-28T12:37:02;5.30;;;1.90;;
79365;SDS011;68833;53.160;17.920;2023-04-28T12:39:31;3.10;;;1.60;;
79365;SDS011;68833;53.160;17.920;2023-04-28T12:41:59;5.30;;;2.00;;
79365;SDS011;68833;53.160;17.920;2023-04-28T12:44:31;9.70;;;6.50;;
79365;SDS011;68833;53.160;17.920;2023-04-28T12:47:01;9.80;;;3.30;;
79365;SDS011;68833;53.160;17.920;2023-04-28T12:49:28;2.50;;;1.80;;
79365;SDS011;68833;53.160;17.920;2023-04-28T12:51:54;5.00;;;2.30;;
79365;SDS011;68833;53.160;17.920;2023-04-28T12:54:20;5.30;;;2.60;;
79365;SDS011;68833;53.160;17.920;2023-04-28T12:56:47;7.00;;;4.20;;
79365;SDS011;68833;53.160;17.920;2023-04-28T12:59:14;5.40;;;2.20;;
79365;SDS011;68833;53.160;17.920;2023-04-28T13:01:40;4.10;;;2.20;;
79365;SDS011;68833;53.160;17.920;2023-04-28T13:04:07;3.90;;;2.20;;
79365;SDS011;68833;53.160;17.920;2023-04-28T13:06:34;6.00;;;2.50;;
79365;SDS011;68833;53.160;17.920;2023-04-28T13:09:01;5.30;;;2.20;;
79365;SDS011;68833;53.160;17.920;2023-04-28T13:11:28;7.00;;;2.30;;
79365;SDS011;68833;53.160;17.920;2023-04-28T13:13:55;3.50;;;2.70;;
79365;SDS011;68833;53.160;17.920;2023-04-28T13:16:22;4.50;;;2.30;;
79365;SDS011;68833;53.160;17.920;2023-04-28T13:18:54;6.00;;;2.60;;
79365;SDS011;68833;53.160;17.920;2023-04-28T13:21:21;6.20;;;3.20;;
79365;SDS011;68833;53.160;17.920;2023-04-28T13:23:49;5.30;;;2.50;;
79365;SDS011;68833;53.160;17.920;2023-04-28T13:26:15;4.50;;;3.10;;
79365;SDS011;68833;53.160;17.920;2023-04-28T13:28:45;5.30;;;2.70;;
79365;SDS011;68833;53.160;17.920;2023-04-28T13:31:12;4.10;;;2.50;;
79365;SDS011;68833;53.160;17.920;2023-04-28T13:33:39;5.50;;;2.70;;
79365;SDS011;68833;53.160;17.920;2023-04-28T13:36:06;6.00;;;3.30;;
79365;SDS011;68833;53.160;17.920;2023-04-28T13:38:37;6.40;;;3.00;;
79365;SDS011;68833;53.160;17.920;2023-04-28T13:41:03;5.30;;;3.30;;
79365;SDS011;68833;53.160;17.920;2023-04-28T13:43:30;6.60;;;3.20;;
79365;SDS011;68833;53.160;17.920;2023-04-28T13:45:56;5.80;;;3.00;;
79365;SDS011;68833;53.160;17.920;2023-04-28T13:48:22;6.50;;;3.80;;
79365;SDS011;68833;53.160;17.920;2023-04-28T13:50:49;5.10;;;2.90;;
79365;SDS011;68833;53.160;17.920;2023-04-28T13:53:16;5.20;;;3.30;;
79365;SDS011;68833;53.160;17.920;2023-04-28T13:55:42;6.80;;;3.70;;
79365;SDS011;68833;53.160;17.920;2023-04-28T13:58:09;8.80;;;3.60;;
79365;SDS011;68833;53.160;17.920;2023-04-28T14:00:35;6.90;;;3.40;;
79365;SDS011;68833;53.160;17.920;2023-04-28T14:03:02;7.20;;;3.80;;
79365;SDS011;68833;53.160;17.920;2023-04-28T14:05:29;8.20;;;4.40;;
79365;SDS011;68833;53.160;17.920;2023-04-28T14:07:56;10.00;;;5.00;;
79365;SDS011;68833;53.160;17.920;2023-04-28T14:10:22;7.00;;;4.20;;
79365;SDS011;68833;53.160;17.920;2023-04-28T14:12:48;7.30;;;4.10;;
79365;SDS011;68833;53.160;17.920;2023-04-28T14:15:15;7.70;;;4.50;;
79365;SDS011;68833;53.160;17.920;2023-04-28T14:17:42;6.00;;;4.50;;
79365;SDS011;68833;53.160;17.920;2023-04-28T14:20:08;7.80;;;4.60;;
79365;SDS011;68833;53.160;17.920;2023-04-28T14:22:37;9.70;;;4.90;;
79365;SDS011;68833;53.160;17.920;2023-04-28T14:25:03;9.90;;;5.00;;
79365;SDS011;68833;53.160;17.920;2023-04-28T14:27:30;9.20;;;4.80;;
79365;SDS011;68833;53.160;17.920;2023-04-28T14:29:58;6.50;;;4.50;;
79365;SDS011;68833;53.160;17.920;2023-04-28T14:32:25;8.70;;;4.30;;
79365;SDS011;68833;53.160;17.920;2023-04-28T14:34:51;8.70;;;4.60;;
79365;SDS011;68833;53.160;17.920;2023-04-28T14:37:18;7.90;;;4.90;;
79365;SDS011;68833;53.160;17.920;2023-04-28T14:39:44;7.80;;;4.50;;
79365;SDS011;68833;53.160;17.920;2023-04-28T14:42:11;7.00;;;4.30;;
79365;SDS011;68833;53.160;17.920;2023-04-28T14:44:37;9.70;;;4.90;;
79365;SDS011;68833;53.160;17.920;2023-04-28T14:47:09;6.00;;;3.40;;
79365;SDS011;68833;53.160;17.920;2023-04-28T14:49:35;9.30;;;3.90;;
79365;SDS011;68833;53.160;17.920;2023-04-28T14:52:02;6.90;;;3.80;;
79365;SDS011;68833;53.160;17.920;2023-04-28T14:54:29;14.10;;;6.00;;
79365;SDS011;68833;53.160;17.920;2023-04-28T14:56:55;12.00;;;4.90;;
79365;SDS011;68833;53.160;17.920;2023-04-28T14:59:21;6.90;;;4.70;;
79365;SDS011;68833;53.160;17.920;2023-04-28T15:01:47;7.20;;;5.00;;
79365;SDS011;68833;53.160;17.920;2023-04-28T15:04:16;8.80;;;4.90;;
79365;SDS011;68833;53.160;17.920;2023-04-28T15:06:42;8.00;;;4.50;;
79365;SDS011;68833;53.160;17.920;2023-04-28T15:09:09;5.80;;;4.50;;